Time;durP1;ratioP1;P1;durP2;ratioP2;P2;SDS_P1;SDS_P2;PMS_P1;PMS_P2;Temp;Humidity;BMP_temperature;BMP_pressure;BME280_temperature;BME280_humidity;BME280_pressure;Samples;Min_cycle;Max_cycle;Signal;HPM_P1;HPM_P2
2022/05/31 00:01:52;;;;;;;3.45;3.15;;;11.30;94.60;;;;;;5012579;28;20197;-56
2022/05/31 00:04:18;;;;;;;4.85;3.00;;;11.30;95.50;;;;;;5013501;28;20231;-55
2022/05/31 00:06:44;;;;;;;3.20;2.63;;;11.00;95.80;;;;;;5013011;28;20554;-55
2022/05/31 00:09:11;;;;;;;4.30;2.80;;;11.30;95.50;;;;;;5013504;28;20205;-56
2022/05/31 00:11:37;;;;;;;3.38;2.90;;;11.10;95.30;;;;;;5012018;28;20449;-56
2022/05/31 00:14:04;;;;;;;3.63;3.30;;;11.10;95.40;;;;;;5013213;28;20231;-56
2022/05/31 00:16:31;;;;;;;3.25;2.90;;;11.30;95.80;;;;;;5012448;28;20193;-56
2022/05/31 00:18:56;;;;;;;4.75;3.00;;;11.20;95.70;;;;;;5011905;28;20244;-56
2022/05/31 00:21:45;;;;;;;2.93;2.70;;;10.80;95.90;;;;;;5003125;28;20626;-56
2022/05/31 00:24:15;;;;;;;3.90;3.28;;;10.90;96.40;;;;;;5012990;28;20198;-55
2022/05/31 00:26:41;;;;;;;3.45;2.90;;;11.00;96.30;;;;;;5012244;28;20193;-56
2022/05/31 00:29:08;;;;;;;4.13;3.23;;;11.10;96.30;;;;;;5013402;28;20213;-56
2022/05/31 00:31:35;;;;;;;3.25;2.95;;;10.90;96.20;;;;;;5012154;28;20223;-56
2022/05/31 00:34:01;;;;;;;3.13;2.83;;;10.80;96.40;;;;;;5013311;28;20186;-56
2022/05/31 00:36:27;;;;;;;3.20;2.90;;;11.10;96.60;;;;;;5011896;28;20720;-56
2022/05/31 00:38:54;;;;;;;3.23;2.87;;;10.90;96.60;;;;;;5011241;28;20476;-56
2022/05/31 00:41:29;;;;;;;3.50;2.97;;;10.90;96.80;;;;;;5011985;28;20667;-56
2022/05/31 00:44:02;;;;;;;2.90;2.70;;;10.80;97.00;;;;;;5012347;28;20198;-56
2022/05/31 00:46:39;;;;;;;2.70;2.50;;;10.90;97.10;;;;;;5011247;28;20192;-56
2022/05/31 00:49:06;;;;;;;3.47;3.17;;;11.00;97.30;;;;;;5012327;28;20203;-56
2022/05/31 00:51:46;;;;;;;3.38;3.08;;;10.70;97.10;;;;;;5011084;28;20222;-56
2022/05/31 00:54:15;;;;;;;3.35;2.92;;;10.60;97.30;;;;;;5012337;28;20220;-56
2022/05/31 00:56:41;;;;;;;3.50;3.20;;;10.70;97.50;;;;;;5010095;28;20196;-56
2022/05/31 00:59:15;;;;;;;5.20;2.97;;;10.50;97.80;;;;;;5010508;28;20207;-56
2022/05/31 01:01:43;;;;;;;4.18;3.20;;;10.50;98.00;;;;;;5011129;28;20197;-56
2022/05/31 01:04:10;;;;;;;4.30;2.60;;;10.40;98.50;;;;;;5011957;28;20293;-56
2022/05/31 01:06:37;;;;;;;3.78;3.35;;;10.50;98.80;;;;;;5011942;28;20195;-56
2022/05/31 01:09:03;;;;;;;3.03;2.83;;;10.30;98.50;;;;;;5012733;28;20204;-57
2022/05/31 01:11:35;;;;;;;4.28;2.80;;;10.50;98.60;;;;;;5011180;28;20218;-56
2022/05/31 01:14:00;;;;;;;8.68;2.97;;;10.50;98.80;;;;;;5012157;28;20176;-56
2022/05/31 01:16:26;;;;;;;2.80;2.60;;;10.20;98.50;;;;;;5008089;28;20187;-57
2022/05/31 01:18:52;;;;;;;3.30;3.00;;;10.60;98.90;;;;;;5011267;28;20258;-56
2022/05/31 01:21:18;;;;;;;4.22;2.72;;;10.10;98.90;;;;;;5011064;28;20414;-57
2022/05/31 01:23:59;;;;;;;3.73;2.90;;;10.00;98.90;;;;;;5011925;28;20184;-57
2022/05/31 01:26:41;;;;;;;2.83;2.63;;;10.30;99.10;;;;;;5005489;28;20480;-57
2022/05/31 01:29:25;;;;;;;3.70;2.60;;;10.10;99.30;;;;;;5011703;28;20204;-57
2022/05/31 01:31:57;;;;;;;3.15;2.85;;;10.30;99.50;;;;;;5003570;28;20215;-57
2022/05/31 01:34:34;;;;;;;4.13;2.67;;;10.00;99.60;;;;;;5003243;28;20660;-56
2022/05/31 01:36:59;;;;;;;3.63;3.00;;;10.00;99.60;;;;;;5006308;28;20542;-56
2022/05/31 01:39:34;;;;;;;2.60;2.40;;;10.20;99.80;;;;;;5010308;28;20330;-57
2022/05/31 01:42:36;;;;;;;2.83;2.55;;;10.20;99.50;;;;;;5010361;28;20188;-56
2022/05/31 01:45:11;;;;;;;3.58;3.28;;;10.20;99.50;;;;;;5010865;28;20198;-56
2022/05/31 01:47:37;;;;;;;5.45;2.92;;;10.00;99.70;;;;;;5010989;28;20187;-56
2022/05/31 01:50:05;;;;;;;3.20;3.00;;;10.10;99.80;;;;;;5011297;28;20266;-56
2022/05/31 01:52:32;;;;;;;3.55;3.15;;;10.10;99.80;;;;;;5010618;28;20724;-56
2022/05/31 01:54:59;;;;;;;2.65;2.45;;;10.10;99.80;;;;;;5010510;28;20218;-57
2022/05/31 01:57:25;;;;;;;3.08;2.78;;;10.20;99.80;;;;;;5010356;28;20250;-56
2022/05/31 01:59:59;;;;;;;3.42;3.13;;;10.10;99.60;;;;;;5009663;28;20212;-56
2022/05/31 02:02:25;;;;;;;3.15;2.85;;;10.00;99.60;;;;;;5002041;28;20534;-56
2022/05/31 02:04:51;;;;;;;4.15;3.47;;;10.10;99.90;;;;;;5010939;28;20192;-56
2022/05/31 02:07:23;;;;;;;2.80;2.60;;;10.10;99.90;;;;;;5010502;28;20194;-56
2022/05/31 02:09:50;;;;;;;2.80;2.60;;;9.90;99.90;;;;;;5010064;28;20207;-56
2022/05/31 02:12:18;;;;;;;3.30;2.72;;;9.80;99.90;;;;;;5010348;28;20240;-56
2022/05/31 02:14:44;;;;;;;4.55;2.63;;;10.00;99.90;;;;;;5010837;28;20282;-57
2022/05/31 02:17:10;;;;;;;3.07;2.87;;;10.50;99.90;;;;;;5009982;28;20267;-56
2022/05/31 02:19:36;;;;;;;3.10;2.90;;;9.90;99.90;;;;;;5009022;28;20215;-57
2022/05/31 02:22:06;;;;;;;2.67;2.47;;;10.20;99.90;;;;;;5010697;28;20268;-57
2022/05/31 02:24:32;;;;;;;4.18;3.08;;;10.00;99.90;;;;;;5009998;28;20192;-57
2022/05/31 02:26:58;;;;;;;3.35;3.05;;;10.00;99.90;;;;;;5010318;28;20244;-56
2022/05/31 02:29:27;;;;;;;3.75;3.00;;;9.90;99.90;;;;;;5010500;28;20254;-56
2022/05/31 02:31:53;;;;;;;4.28;3.88;;;9.90;99.90;;;;;;5010180;28;20215;-56
2022/05/31 02:34:28;;;;;;;4.00;2.90;;;10.00;99.90;;;;;;5010761;28;20557;-56
2022/05/31 02:36:53;;;;;;;3.78;3.28;;;9.90;99.90;;;;;;5009575;28;20429;-56
2022/05/31 02:39:19;;;;;;;2.93;2.73;;;9.90;99.90;;;;;;5010205;28;20207;-56
2022/05/31 02:41:45;;;;;;;3.03;2.73;;;9.80;99.90;;;;;;5009325;28;20198;-56
2022/05/31 02:44:11;;;;;;;3.10;2.80;;;9.70;99.90;;;;;;5009714;28;20793;-56
2022/05/31 02:46:37;;;;;;;2.88;2.65;;;9.80;99.90;;;;;;5005394;28;20453;-56
2022/05/31 02:49:04;;;;;;;4.03;3.00;;;9.60;99.90;;;;;;5008907;28;20621;-56
2022/05/31 02:51:41;;;;;;;2.80;2.60;;;9.90;99.90;;;;;;5009470;28;20488;-56
2022/05/31 02:54:07;;;;;;;3.00;2.80;;;9.80;99.90;;;;;;5009440;28;20682;-56
2022/05/31 02:56:32;;;;;;;3.35;3.05;;;9.80;99.90;;;;;;5007302;28;20205;-56
2022/05/31 02:58:58;;;;;;;3.23;3.03;;;9.60;99.90;;;;;;5007021;28;20272;-56
2022/05/31 03:01:31;;;;;;;2.90;2.60;;;9.60;99.90;;;;;;5008764;28;20191;-55
2022/05/31 03:03:57;;;;;;;3.10;2.80;;;9.20;99.90;;;;;;5009155;28;20181;-55
2022/05/31 03:06:23;;;;;;;3.05;2.67;;;9.90;99.90;;;;;;5009170;28;20270;-58
2022/05/31 03:08:49;;;;;;;3.63;3.13;;;9.70;99.90;;;;;;5007771;28;20645;-58
2022/05/31 03:11:41;;;;;;;4.27;3.23;;;9.40;99.90;;;;;;5008502;28;20466;-57
2022/05/31 03:14:19;;;;;;;3.35;2.97;;;9.60;99.90;;;;;;5008753;28;20245;-58
2022/05/31 03:16:46;;;;;;;3.40;3.10;;;9.60;99.90;;;;;;5008023;28;20212;-57
2022/05/31 03:19:18;;;;;;;3.20;3.00;;;9.50;99.90;;;;;;5009163;28;20216;-58
2022/05/31 03:21:50;;;;;;;3.80;3.40;;;9.60;99.90;;;;;;5006705;28;20214;-58
2022/05/31 03:24:20;;;;;;;3.25;2.70;;;9.60;99.90;;;;;;5007795;28;20664;-58
2022/05/31 03:26:48;;;;;;;3.50;3.10;;;9.50;99.90;;;;;;5014060;28;20187;-57
2022/05/31 03:29:14;;;;;;;3.83;3.38;;;9.60;99.90;;;;;;5013463;28;20287;-57
2022/05/31 03:31:40;;;;;;;3.77;3.40;;;9.50;99.90;;;;;;5012348;28;20295;-57
2022/05/31 03:34:06;;;;;;;2.90;2.60;;;9.40;99.90;;;;;;5012088;28;20196;-57
2022/05/31 03:36:33;;;;;;;3.30;3.00;;;9.40;99.90;;;;;;5009025;28;20181;-57
2022/05/31 03:38:59;;;;;;;3.40;3.10;;;9.50;99.90;;;;;;5012576;28;20207;-57
2022/05/31 03:41:25;;;;;;;3.73;3.27;;;9.60;99.90;;;;;;5012981;28;20567;-57
2022/05/31 03:43:50;;;;;;;4.10;3.60;;;9.30;99.90;;;;;;5012197;28;20442;-57
2022/05/31 03:46:16;;;;;;;3.50;3.20;;;9.40;99.90;;;;;;5011654;28;20227;-57
2022/05/31 03:48:42;;;;;;;4.73;3.23;;;9.60;99.90;;;;;;5028492;28;20219;-57
2022/05/31 03:51:10;;;;;;;3.80;3.50;;;9.50;99.90;;;;;;5013246;28;20905;-57
2022/05/31 03:53:36;;;;;;;3.20;3.00;;;9.20;99.90;;;;;;5012793;28;20179;-57
2022/05/31 03:56:08;;;;;;;4.07;3.00;;;9.40;99.90;;;;;;5011259;28;20203;-57
2022/05/31 03:58:34;;;;;;;4.47;2.88;;;9.40;99.90;;;;;;5005418;28;20269;-57
2022/05/31 04:01:00;;;;;;;5.10;3.17;;;9.50;99.90;;;;;;5012506;28;20226;-57
2022/05/31 04:03:26;;;;;;;3.97;3.40;;;9.50;99.90;;;;;;5011426;28;20608;-57
2022/05/31 04:05:53;;;;;;;4.57;3.42;;;9.40;99.90;;;;;;5011995;28;20195;-57
2022/05/31 04:08:20;;;;;;;3.60;3.30;;;10.10;99.90;;;;;;5011679;28;20211;-57
2022/05/31 04:10:47;;;;;;;4.00;3.58;;;9.50;99.90;;;;;;5011020;28;20202;-57
2022/05/31 04:13:14;;;;;;;3.92;3.50;;;9.50;99.90;;;;;;5012727;28;20676;-57
2022/05/31 04:15:40;;;;;;;3.40;3.10;;;9.80;99.90;;;;;;5010285;28;20274;-57
2022/05/31 04:18:06;;;;;;;3.30;3.03;;;9.50;99.90;;;;;;5010159;28;20282;-56
2022/05/31 04:20:34;;;;;;;3.90;3.28;;;9.80;99.90;;;;;;5013490;28;20869;-57
2022/05/31 04:25:45;;;;;;;7.10;3.30;;;9.70;99.90;;;;;;5005803;28;20218;-57
2022/05/31 04:28:11;;;;;;;4.53;3.50;;;9.80;99.90;;;;;;5009648;28;20210;-57
2022/05/31 04:30:37;;;;;;;3.17;2.97;;;9.80;99.90;;;;;;5010911;28;20184;-57
2022/05/31 04:33:04;;;;;;;3.25;2.95;;;9.80;99.90;;;;;;5002698;28;20446;-56
2022/05/31 04:35:30;;;;;;;3.67;3.38;;;9.60;99.90;;;;;;5007169;28;20195;-56
2022/05/31 04:37:55;;;;;;;3.92;3.53;;;9.60;99.90;;;;;;5011239;28;21026;-58
2022/05/31 04:40:21;;;;;;;3.27;2.97;;;9.60;99.90;;;;;;5011141;28;20179;-56
2022/05/31 04:42:47;;;;;;;4.03;3.70;;;9.80;99.90;;;;;;5011188;28;20214;-59
2022/05/31 04:45:12;;;;;;;3.73;3.43;;;9.80;99.90;;;;;;5007650;28;20200;-56
2022/05/31 04:47:38;;;;;;;4.10;3.37;;;10.00;99.90;;;;;;5010014;28;20249;-56
2022/05/31 04:50:04;;;;;;;4.30;2.97;;;10.20;99.90;;;;;;5010622;28;20211;-58
2022/05/31 04:52:31;;;;;;;4.70;3.55;;;10.10;99.90;;;;;;5009287;28;20208;-58
2022/05/31 04:54:56;;;;;;;3.58;3.38;;;9.90;99.90;;;;;;5011972;28;20181;-58
2022/05/31 04:57:22;;;;;;;6.03;4.00;;;10.40;99.90;;;;;;5010876;28;20291;-56
2022/05/31 04:59:47;;;;;;;3.57;3.27;;;10.30;99.90;;;;;;4998418;28;20700;-56
2022/05/31 05:02:13;;;;;;;3.80;3.40;;;10.40;99.90;;;;;;5009794;28;20181;-56
2022/05/31 05:04:38;;;;;;;3.30;2.97;;;10.60;99.90;;;;;;5010356;28;20196;-56
2022/05/31 05:07:04;;;;;;;4.80;4.40;;;10.70;99.90;;;;;;5003732;28;20637;-56
2022/05/31 05:09:30;;;;;;;5.50;5.00;;;10.60;99.90;;;;;;5010696;28;20683;-56
2022/05/31 05:11:55;;;;;;;7.10;5.07;;;10.80;99.90;;;;;;5005749;28;20745;-58
2022/05/31 05:14:21;;;;;;;5.00;3.73;;;11.00;99.90;;;;;;5009216;28;20627;-56
2022/05/31 05:16:48;;;;;;;3.83;3.40;;;11.00;99.80;;;;;;5007123;28;20595;-56
2022/05/31 05:19:17;;;;;;;3.60;3.30;;;10.90;99.50;;;;;;5003516;28;20461;-62
2022/05/31 05:21:43;;;;;;;3.83;3.45;;;11.00;99.60;;;;;;5005419;28;20671;-63
2022/05/31 05:24:08;;;;;;;5.10;3.83;;;11.40;99.50;;;;;;5008016;28;20198;-63
2022/05/31 05:26:35;;;;;;;3.97;3.67;;;11.30;99.20;;;;;;5001559;28;20228;-64
2022/05/31 05:31:45;;;;;;;3.97;3.28;;;11.80;98.60;;;;;;5007679;28;20377;-55
2022/05/31 05:34:11;;;;;;;6.07;3.90;;;11.90;98.50;;;;;;5008306;28;20209;-61
2022/05/31 05:36:37;;;;;;;5.07;4.07;;;12.40;97.90;;;;;;5005113;28;20205;-61
2022/05/31 05:39:02;;;;;;;5.60;4.87;;;12.40;97.40;;;;;;5009527;28;20213;-63
2022/05/31 05:41:30;;;;;;;5.13;4.63;;;12.40;97.30;;;;;;5011518;28;20204;-62
2022/05/31 05:43:56;;;;;;;4.20;3.90;;;12.70;96.50;;;;;;5006296;28;20219;-61
2022/05/31 05:46:27;;;;;;;4.13;3.73;;;13.00;96.30;;;;;;5009620;28;20714;-60
2022/05/31 05:48:53;;;;;;;6.38;5.10;;;13.00;95.80;;;;;;5008538;28;20226;-61
2022/05/31 05:51:20;;;;;;;4.22;3.90;;;13.20;95.20;;;;;;5007009;28;20668;-61
2022/05/31 05:53:46;;;;;;;4.47;4.07;;;13.40;94.80;;;;;;5007510;28;20186;-62
2022/05/31 05:56:13;;;;;;;4.05;3.65;;;13.60;94.90;;;;;;5008404;28;20195;-62
2022/05/31 05:58:39;;;;;;;4.50;4.10;;;14.00;94.40;;;;;;5007843;28;20206;-62
2022/05/31 06:01:09;;;;;;;4.07;3.67;;;14.20;93.90;;;;;;5008047;28;20282;-61
2022/05/31 06:03:35;;;;;;;4.38;3.97;;;14.30;92.80;;;;;;5009648;28;20199;-61
2022/05/31 06:06:00;;;;;;;3.80;3.43;;;14.40;92.40;;;;;;5010012;28;20198;-62
2022/05/31 06:08:32;;;;;;;3.20;3.00;;;14.50;92.10;;;;;;5007870;28;20211;-57
2022/05/31 06:11:18;;;;;;;4.55;3.50;;;14.90;91.50;;;;;;5007242;28;20524;-57
2022/05/31 06:14:13;;;;;;;3.50;3.20;;;15.10;91.00;;;;;;5006299;28;20625;-57
2022/05/31 06:16:43;;;;;;;4.45;3.85;;;15.30;90.80;;;;;;5006855;28;20206;-57
2022/05/31 06:19:16;;;;;;;4.10;3.65;;;15.40;90.20;;;;;;5007564;28;20222;-57
2022/05/31 06:21:43;;;;;;;5.78;3.85;;;15.50;90.00;;;;;;5007803;28;20222;-57
2022/05/31 06:24:09;;;;;;;4.15;3.75;;;15.80;88.90;;;;;;5007424;28;20182;-57
2022/05/31 06:26:35;;;;;;;4.47;3.30;;;16.20;87.90;;;;;;5007600;28;20233;-55
2022/05/31 06:29:03;;;;;;;3.17;2.87;;;16.50;86.70;;;;;;5008996;28;20215;-55
2022/05/31 06:31:29;;;;;;;3.85;3.20;;;16.70;85.00;;;;;;5006694;28;20212;-58
2022/05/31 06:33:54;;;;;;;3.20;3.00;;;17.00;84.50;;;;;;5009594;28;20187;-56
2022/05/31 06:36:20;;;;;;;6.10;5.60;;;17.00;84.80;;;;;;5009380;28;20926;-56
2022/05/31 06:38:46;;;;;;;4.60;3.73;;;17.20;84.40;;;;;;5009916;28;20268;-56
2022/05/31 06:41:12;;;;;;;4.03;3.50;;;17.40;83.00;;;;;;5008008;28;20758;-56
2022/05/31 06:43:38;;;;;;;4.90;4.05;;;17.40;82.40;;;;;;5009664;28;20175;-56
2022/05/31 06:46:08;;;;;;;4.87;3.57;;;17.70;81.30;;;;;;5008310;28;20223;-56
2022/05/31 06:48:34;;;;;;;5.63;3.55;;;17.90;80.10;;;;;;5002506;28;20218;-56
2022/05/31 06:51:07;;;;;;;6.17;2.90;;;17.90;79.70;;;;;;4996513;28;20207;-56
2022/05/31 06:59:02;;;;;;;3.30;3.00;;;18.50;78.80;;;;;;5014495;28;20651;-56
2022/05/31 07:01:37;;;;;;;4.47;3.10;;;18.10;78.20;;;;;;5013282;28;20187;-56
2022/05/31 07:04:04;;;;;;;4.18;3.13;;;18.60;78.00;;;;;;5006366;28;20191;-57
2022/05/31 07:06:32;;;;;;;3.38;3.17;;;20.30;74.70;;;;;;5008186;28;20232;-57
2022/05/31 07:08:59;;;;;;;3.67;3.37;;;21.90;70.70;;;;;;5012086;28;20676;-57
2022/05/31 07:11:25;;;;;;;4.33;3.43;;;24.80;61.70;;;;;;5011635;28;20497;-55
2022/05/31 07:13:51;;;;;;;5.93;2.77;;;26.50;54.90;;;;;;5013744;28;20483;-56
2022/05/31 07:16:16;;;;;;;3.80;3.17;;;28.00;50.90;;;;;;5012483;28;20186;-56
2022/05/31 07:18:42;;;;;;;3.73;3.43;;;29.90;46.80;;;;;;5007973;28;20205;-56
2022/05/31 07:21:08;;;;;;;2.20;1.90;;;30.80;44.60;;;;;;5011409;28;20187;-56
2022/05/31 07:23:34;;;;;;;2.40;2.20;;;30.90;41.40;;;;;;5009476;28;20203;-57
2022/05/31 07:26:02;;;;;;;2.67;2.47;;;31.30;40.30;;;;;;5012273;28;20189;-57
2022/05/31 07:28:28;;;;;;;2.50;2.27;;;33.00;39.10;;;;;;5013687;28;20463;-56
2022/05/31 07:30:54;;;;;;;2.73;2.53;;;32.80;36.70;;;;;;5012095;28;20454;-57
2022/05/31 07:33:20;;;;;;;9.67;8.97;;;31.30;38.30;;;;;;5013107;28;20517;-56
2022/05/31 07:35:46;;;;;;;5.80;5.30;;;31.00;39.20;;;;;;5018033;28;20599;-57
2022/05/31 07:38:11;;;;;;;3.73;2.37;;;31.20;39.60;;;;;;5011832;28;20237;-57
2022/05/31 07:40:37;;;;;;;2.73;2.53;;;28.80;39.70;;;;;;5013092;28;20711;-56
2022/05/31 07:43:02;;;;;;;3.30;2.27;;;28.10;42.00;;;;;;5010375;28;20661;-57
2022/05/31 07:45:28;;;;;;;2.20;2.00;;;28.80;41.70;;;;;;5006568;28;20573;-56
2022/05/31 07:47:54;;;;;;;2.13;1.93;;;28.40;42.30;;;;;;5012422;28;20184;-57
2022/05/31 07:50:20;;;;;;;2.23;2.03;;;28.70;42.90;;;;;;5012812;28;20469;-57
2022/05/31 07:52:46;;;;;;;2.93;2.30;;;28.30;42.20;;;;;;5013311;28;20215;-56
2022/05/31 07:55:12;;;;;;;2.87;2.10;;;28.00;42.80;;;;;;5011737;28;20501;-56
2022/05/31 08:00:22;;;;;;;5.27;2.37;;;28.90;42.80;;;;;;5011867;28;20489;-57
2022/05/31 08:02:47;;;;;;;2.60;2.40;;;28.70;41.60;;;;;;5013164;28;20438;-57
2022/05/31 08:05:13;;;;;;;3.13;2.70;;;28.50;42.50;;;;;;5012097;28;20955;-56
2022/05/31 08:07:39;;;;;;;3.40;3.20;;;29.40;41.70;;;;;;5011523;28;20195;-57
2022/05/31 08:10:06;;;;;;;2.33;2.13;;;30.80;40.10;;;;;;5011269;28;20449;-57
2022/05/31 08:12:32;;;;;;;1.93;1.77;;;31.50;38.50;;;;;;5012527;28;20586;-57
2022/05/31 08:14:57;;;;;;;2.43;2.00;;;31.20;38.70;;;;;;5012008;28;20438;-56
2022/05/31 08:17:23;;;;;;;3.10;2.80;;;30.90;38.60;;;;;;5010768;28;20205;-57
2022/05/31 08:19:48;;;;;;;2.30;2.10;;;32.30;38.00;;;;;;5012182;28;20207;-57
2022/05/31 08:22:14;;;;;;;1.87;1.77;;;33.20;36.10;;;;;;5009072;28;20187;-57
2022/05/31 08:24:40;;;;;;;2.20;2.10;;;32.10;36.60;;;;;;5011270;28;20190;-60
2022/05/31 08:27:05;;;;;;;2.30;2.10;;;32.30;36.40;;;;;;5006525;28;20194;-68
2022/05/31 08:29:31;;;;;;;2.40;2.20;;;32.00;37.00;;;;;;5010275;28;20214;-67
2022/05/31 08:31:58;;;;;;;2.10;2.00;;;32.70;35.70;;;;;;5010449;28;20209;-69
2022/05/31 08:34:28;;;;;;;3.10;1.90;;;33.20;35.70;;;;;;5011246;28;20189;-69
2022/05/31 08:36:54;;;;;;;1.83;1.73;;;32.90;34.60;;;;;;5011873;28;20523;-70
2022/05/31 08:39:20;;;;;;;2.70;2.10;;;34.00;34.20;;;;;;5009030;28;20453;-71
2022/05/31 08:41:48;;;;;;;2.00;1.90;;;34.40;32.80;;;;;;5010570;28;20445;-68
2022/05/31 08:44:33;;;;;;;3.00;2.00;;;34.70;32.50;;;;;;5012175;28;20445;-68
2022/05/31 08:47:02;;;;;;;2.10;1.87;;;35.30;32.60;;;;;;5004501;28;20457;-69
2022/05/31 08:52:34;;;;;;;1.77;1.67;;;35.90;30.80;;;;;;5006915;28;20469;-59
2022/05/31 08:57:56;;;;;;;2.60;2.40;;;33.40;32.60;;;;;;5007895;28;20974;-66
2022/05/31 09:00:33;;;;;;;1.93;1.80;;;32.80;33.40;;;;;;4997747;28;20439;-69
2022/05/31 09:03:09;;;;;;;2.50;1.83;;;33.40;33.60;;;;;;5011126;28;20782;-67
2022/05/31 09:06:01;;;;;;;3.10;2.03;;;33.50;33.60;;;;;;5003317;28;20457;-68
2022/05/31 09:08:33;;;;;;;2.23;2.00;;;33.70;33.60;;;;;;5006346;28;20466;-68
2022/05/31 09:11:01;;;;;;;2.33;2.13;;;34.40;32.70;;;;;;5011333;28;20430;-70
2022/05/31 09:13:34;;;;;;;2.60;2.10;;;35.20;31.80;;;;;;5009158;28;20911;-69
2022/05/31 09:16:09;;;;;;;3.07;2.20;;;34.40;32.10;;;;;;5004079;28;20521;-68
2022/05/31 09:18:56;;;;;;;2.63;2.10;;;33.10;34.80;;;;;;5008916;28;20456;-65
2022/05/31 09:21:27;;;;;;;2.90;2.63;;;32.50;35.00;;;;;;5003942;28;20532;-65
2022/05/31 09:23:55;;;;;;;3.23;2.33;;;31.00;35.90;;;;;;5009712;28;20449;-64
2022/05/31 09:26:46;;;;;;;4.37;3.97;;;30.10;37.60;;;;;;5008473;28;20521;-65
2022/05/31 09:29:16;;;;;;;2.90;2.70;;;29.50;38.70;;;;;;5010491;28;20460;-67
2022/05/31 09:32:12;;;;;;;2.87;2.63;;;28.90;40.20;;;;;;5008943;28;20930;-64
2022/05/31 09:35:09;;;;;;;2.40;2.10;;;27.60;41.70;;;;;;5008672;28;20527;-64
2022/05/31 09:37:43;;;;;;;3.90;2.20;;;27.30;41.20;;;;;;5000137;28;20431;-63
2022/05/31 09:40:15;;;;;;;2.40;2.20;;;27.00;42.10;;;;;;5010710;28;20444;-59
2022/05/31 09:42:53;;;;;;;2.50;2.27;;;26.90;41.70;;;;;;5010020;28;21028;-59
2022/05/31 09:45:20;;;;;;;2.23;2.03;;;26.50;42.10;;;;;;5000282;28;20946;-58
2022/05/31 09:47:48;;;;;;;3.40;2.20;;;27.50;40.90;;;;;;5008348;28;20945;-59
2022/05/31 09:50:13;;;;;;;2.43;1.90;;;27.10;40.30;;;;;;5009473;28;20438;-59
2022/05/31 09:52:52;;;;;;;2.67;2.47;;;27.60;41.00;;;;;;5010616;28;20979;-59
2022/05/31 09:58:36;;;;;;;2.70;2.50;;;30.20;36.80;;;;;;5003205;28;20506;-58
2022/05/31 10:01:04;;;;;;;2.00;1.90;;;31.00;35.00;;;;;;5004853;28;20445;-58
2022/05/31 10:03:35;;;;;;;2.43;2.23;;;30.30;36.30;;;;;;5023894;28;20432;-58
2022/05/31 10:06:06;;;;;;;2.57;2.37;;;30.20;36.40;;;;;;5008769;28;20444;-58
2022/05/31 10:08:34;;;;;;;3.20;1.90;;;31.50;34.60;;;;;;5009187;28;20549;-58
2022/05/31 10:11:11;;;;;;;2.10;2.00;;;32.80;33.40;;;;;;5007968;28;20533;-59
2022/05/31 10:13:40;;;;;;;3.33;2.70;;;33.60;32.10;;;;;;5004965;28;20434;-58
2022/05/31 10:16:33;;;;;;;2.23;2.03;;;33.40;32.10;;;;;;5008388;28;20441;-58
2022/05/31 10:19:05;;;;;;;2.67;2.47;;;31.90;33.20;;;;;;5007140;28;20502;-58
2022/05/31 10:21:40;;;;;;;2.40;2.20;;;31.00;34.60;;;;;;5005141;28;20439;-60
2022/05/31 10:24:06;;;;;;;2.90;2.70;;;30.10;35.50;;;;;;5006400;28;20441;-59
2022/05/31 10:26:33;;;;;;;2.50;2.30;;;29.70;37.40;;;;;;5007207;28;20835;-59
2022/05/31 10:29:26;;;;;;;2.20;2.00;;;29.10;37.90;;;;;;5008347;28;20215;-59
2022/05/31 10:31:53;;;;;;;3.50;2.30;;;28.60;38.90;;;;;;4995919;28;20551;-59
2022/05/31 10:34:36;;;;;;;3.27;2.33;;;27.90;39.20;;;;;;5005123;28;20439;-68
2022/05/31 10:37:05;;;;;;;6.00;2.67;;;26.90;40.80;;;;;;5024197;28;20488;-70
2022/05/31 10:39:36;;;;;;;5.27;3.53;;;26.60;43.20;;;;;;5006545;28;20483;-68
2022/05/31 10:42:06;;;;;;;3.50;3.20;;;26.10;45.60;;;;;;5007597;28;20519;-68
2022/05/31 10:44:51;;;;;;;3.00;2.80;;;27.00;45.70;;;;;;5006282;28;20501;-66
2022/05/31 10:47:18;;;;;;;3.57;2.87;;;28.40;43.90;;;;;;5002612;28;20528;-68
2022/05/31 10:49:46;;;;;;;3.50;3.20;;;29.00;42.30;;;;;;5005543;28;20559;-72
2022/05/31 10:52:39;;;;;;;5.20;2.80;;;30.00;40.70;;;;;;5007031;28;20770;-69
2022/05/31 10:55:24;;;;;;;3.57;2.97;;;30.00;40.70;;;;;;5009445;28;20441;-67
2022/05/31 10:58:11;;;;;;;6.10;3.10;;;30.90;39.50;;;;;;5007560;28;20877;-64
2022/05/31 11:00:59;;;;;;;4.57;3.60;;;30.30;40.20;;;;;;4995696;28;20468;-67
2022/05/31 11:03:47;;;;;;;5.90;3.37;;;30.10;39.60;;;;;;5021556;28;20450;-68
2022/05/31 11:06:45;;;;;;;4.03;3.20;;;30.10;39.10;;;;;;5007039;28;20464;-70
2022/05/31 11:12:42;;;;;;;3.90;2.93;;;30.90;38.80;;;;;;5006665;28;20473;-65
2022/05/31 11:15:31;;;;;;;9.07;4.83;;;30.80;38.30;;;;;;5005577;28;20451;-65
2022/05/31 11:18:31;;;;;;;5.00;3.27;;;31.90;38.20;;;;;;5009463;28;20535;-65
2022/05/31 11:21:27;;;;;;;3.50;3.00;;;31.10;36.50;;;;;;5007302;28;20474;-65
2022/05/31 11:24:13;;;;;;;3.27;3.00;;;30.30;37.10;;;;;;5007156;28;20437;-66
2022/05/31 11:26:46;;;;;;;4.30;3.17;;;29.70;38.20;;;;;;5007311;28;20480;-68
2022/05/31 11:29:40;;;;;;;4.77;3.13;;;30.40;38.10;;;;;;5008772;28;21033;-67
2022/05/31 11:32:16;;;;;;;2.90;2.70;;;30.60;37.00;;;;;;5003513;28;20474;-74
2022/05/31 11:34:52;;;;;;;3.30;2.43;;;30.30;36.90;;;;;;5000087;28;20442;-73
2022/05/31 11:37:42;;;;;;;2.60;2.40;;;29.90;37.30;;;;;;5008364;28;20494;-59
2022/05/31 11:40:35;;;;;;;3.50;3.20;;;30.00;37.10;;;;;;5006934;28;20440;-59
2022/05/31 11:43:43;;;;;;;4.70;3.60;;;30.00;37.70;;;;;;5010604;28;20453;-59
2022/05/31 11:46:09;;;;;;;2.40;2.17;;;30.30;37.50;;;;;;5010536;28;20536;-59
2022/05/31 11:48:52;;;;;;;4.60;4.00;;;29.40;37.40;;;;;;5024378;28;20561;-60
2022/05/31 11:51:25;;;;;;;4.33;3.67;;;28.60;38.10;;;;;;5004773;28;20213;-60
2022/05/31 11:54:00;;;;;;;3.50;3.20;;;28.70;38.60;;;;;;5011672;28;20452;-60
2022/05/31 11:56:40;;;;;;;6.80;4.20;;;27.90;39.50;;;;;;5011888;28;20524;-59
2022/05/31 11:59:16;;;;;;;6.43;3.00;;;27.60;40.00;;;;;;5011618;28;20548;-59
2022/05/31 12:02:03;;;;;;;3.30;2.53;;;27.20;40.60;;;;;;5010131;28;20457;-60
2022/05/31 12:04:51;;;;;;;2.60;2.40;;;26.80;40.90;;;;;;5004950;28;20446;-60
2022/05/31 12:07:31;;;;;;;3.47;2.37;;;26.40;41.40;;;;;;5005191;28;20559;-59
2022/05/31 12:10:04;;;;;;;2.20;2.07;;;26.10;41.20;;;;;;5003849;28;20479;-59
2022/05/31 12:12:33;;;;;;;2.73;2.30;;;26.00;41.70;;;;;;5011631;28;20541;-59
2022/05/31 12:15:22;;;;;;;2.43;2.20;;;25.70;41.60;;;;;;5010515;28;20451;-59
2022/05/31 12:18:14;;;;;;;2.93;2.60;;;25.60;41.80;;;;;;5010641;28;20455;-59
2022/05/31 12:21:03;;;;;;;2.90;2.70;;;25.40;41.50;;;;;;5011443;28;20970;-59
2022/05/31 12:23:44;;;;;;;3.23;2.93;;;25.40;41.60;;;;;;5008639;28;20541;-60
2022/05/31 12:26:31;;;;;;;2.90;2.70;;;24.70;43.20;;;;;;5000649;28;20801;-60
2022/05/31 12:29:06;;;;;;;2.90;2.70;;;24.50;43.10;;;;;;5009958;28;20810;-60
2022/05/31 12:31:39;;;;;;;3.53;2.40;;;24.80;43.30;;;;;;5010978;28;20469;-59
2022/05/31 12:34:31;;;;;;;2.70;2.50;;;25.00;43.00;;;;;;5014092;28;20451;-60
2022/05/31 12:37:08;;;;;;;2.67;2.47;;;25.20;42.50;;;;;;5010839;28;20459;-60
2022/05/31 12:39:35;;;;;;;2.63;2.30;;;25.40;42.80;;;;;;5010734;28;20462;-60
2022/05/31 12:42:33;;;;;;;2.80;2.43;;;25.10;41.90;;;;;;5010259;28;20836;-60
2022/05/31 12:45:34;;;;;;;2.50;2.30;;;25.30;42.00;;;;;;5010810;28;20482;-59
2022/05/31 12:48:14;;;;;;;3.10;2.20;;;25.40;42.20;;;;;;5009904;28;20605;-59
2022/05/31 12:50:55;;;;;;;2.60;2.40;;;25.40;42.00;;;;;;5009086;28;20449;-59
2022/05/31 12:53:22;;;;;;;3.20;2.77;;;25.50;41.90;;;;;;5000453;28;20795;-59
2022/05/31 12:55:47;;;;;;;1.90;1.80;;;25.40;41.40;;;;;;5008877;28;21040;-59
2022/05/31 12:58:33;;;;;;;3.03;2.67;;;25.30;41.80;;;;;;5010547;28;20467;-60
2022/05/31 13:01:06;;;;;;;3.33;2.67;;;25.10;42.10;;;;;;5005102;28;20185;-67
2022/05/31 13:03:34;;;;;;;3.23;2.33;;;25.10;42.30;;;;;;5008160;28;20883;-65
2022/05/31 13:06:03;;;;;;;3.13;2.10;;;25.10;42.80;;;;;;5009017;28;20517;-65
2022/05/31 13:08:57;;;;;;;2.40;2.20;;;25.20;42.10;;;;;;5009391;28;20473;-65
2022/05/31 13:20:46;;;;;;;2.57;2.20;;;24.70;41.50;;;;;;5006638;28;20433;-63
2022/05/31 13:23:16;;;;;;;5.07;1.93;;;24.50;42.50;;;;;;5006434;28;20491;-63
2022/05/31 13:26:00;;;;;;;4.67;2.50;;;24.50;41.90;;;;;;5009795;28;20516;-65
2022/05/31 13:28:35;;;;;;;2.10;2.00;;;24.30;41.60;;;;;;5005168;28;20472;-61
2022/05/31 13:31:09;;;;;;;4.00;2.37;;;24.30;41.60;;;;;;5000113;28;20449;-66
2022/05/31 13:33:35;;;;;;;4.10;2.50;;;24.30;41.80;;;;;;5007759;28;20484;-64
2022/05/31 13:36:24;;;;;;;2.90;2.27;;;24.40;41.40;;;;;;5008812;28;20533;-66
2022/05/31 13:38:55;;;;;;;2.07;1.97;;;24.40;41.50;;;;;;5000175;28;20199;-64
2022/05/31 13:41:21;;;;;;;3.37;2.30;;;24.60;40.90;;;;;;5006606;28;20464;-67
2022/05/31 13:43:52;;;;;;;3.50;2.90;;;24.60;41.20;;;;;;4996288;28;20727;-58
2022/05/31 13:46:24;;;;;;;3.30;2.17;;;24.70;41.20;;;;;;5003654;28;20223;-56